sensor_id;sensor_type;location;lat;lon;timestamp;temperature;humidity
11965;DHT22;6042;41.326;19.826;2024-02-26T00:01:09;11.80;99.90
11965;DHT22;6042;41.326;19.826;2024-02-26T00:03:40;12.00;99.90
11965;DHT22;6042;41.326;19.826;2024-02-26T00:06:09;12.00;99.90
11965;DHT22;6042;41.326;19.826;2024-02-26T00:08:38;11.90;99.90
11965;DHT22;6042;41.326;19.826;2024-02-26T00:11:10;12.00;99.90
11965;DHT22;6042;41.326;19.826;2024-02-26T00:13:39;12.00;99.90
11965;DHT22;6042;41.326;19.826;2024-02-26T00:16:08;12.10;99.90
11965;DHT22;6042;41.326;19.826;2024-02-26T00:18:36;12.00;99.90
11965;DHT22;6042;41.326;19.826;2024-02-26T00:21:06;11.80;99.90
11965;DHT22;6042;41.326;19.826;2024-02-26T00:23:35;11.90;99.90
11965;DHT22;6042;41.326;19.826;2024-02-26T00:26:04;12.00;99.90
11965;DHT22;6042;41.326;19.826;2024-02-26T00:28:33;11.80;99.90
11965;DHT22;6042;41.326;19.826;2024-02-26T00:31:02;12.00;99.90
11965;DHT22;6042;41.326;19.826;2024-02-26T00:33:30;11.70;99.90
11965;DHT22;6042;41.326;19.826;2024-02-26T00:35:59;11.80;99.90
11965;DHT22;6042;41.326;19.826;2024-02-26T00:38:29;11.90;99.90
11965;DHT22;6042;41.326;19.826;2024-02-26T00:40:58;11.70;99.90
11965;DHT22;6042;41.326;19.826;2024-02-26T00:43:26;11.80;99.90
11965;DHT22;6042;41.326;19.826;2024-02-26T00:45:55;11.80;99.90
11965;DHT22;6042;41.326;19.826;2024-02-26T00:48:23;11.70;99.90
11965;DHT22;6042;41.326;19.826;2024-02-26T00:50:53;11.80;99.90
11965;DHT22;6042;41.326;19.826;2024-02-26T00:53:21;11.60;99.90
11965;DHT22;6042;41.326;19.826;2024-02-26T00:55:53;11.70;99.90
11965;DHT22;6042;41.326;19.826;2024-02-26T00:58:23;11.70;99.90
11965;DHT22;6042;41.326;19.826;2024-02-26T01:00:51;11.70;99.90
11965;DHT22;6042;41.326;19.826;2024-02-26T01:03:20;11.90;99.90
11965;DHT22;6042;41.326;19.826;2024-02-26T01:05:48;11.80;99.90
11965;DHT22;6042;41.326;19.826;2024-02-26T01:08:19;11.90;99.90
11965;DHT22;6042;41.326;19.826;2024-02-26T01:10:47;11.90;99.90
11965;DHT22;6042;41.326;19.826;2024-02-26T01:13:17;11.80;99.90
11965;DHT22;6042;41.326;19.826;2024-02-26T01:15:46;11.90;99.90
11965;DHT22;6042;41.326;19.826;2024-02-26T01:18:15;11.90;99.90
11965;DHT22;6042;41.326;19.826;2024-02-26T01:20:43;11.90;99.90
11965;DHT22;6042;41.326;19.826;2024-02-26T01:23:12;11.90;99.90
11965;DHT22;6042;41.326;19.826;2024-02-26T01:25:41;11.90;99.90
11965;DHT22;6042;41.326;19.826;2024-02-26T01:28:10;11.90;99.90
11965;DHT22;6042;41.326;19.826;2024-02-26T01:30:40;11.90;99.90
11965;DHT22;6042;41.326;19.826;2024-02-26T01:33:09;11.90;99.90
11965;DHT22;6042;41.326;19.826;2024-02-26T01:35:37;11.90;99.90
11965;DHT22;6042;41.326;19.826;2024-02-26T01:38:06;11.80;99.90
11965;DHT22;6042;41.326;19.826;2024-02-26T01:40:35;11.90;99.90
11965;DHT22;6042;41.326;19.826;2024-02-26T01:43:04;11.90;99.90
11965;DHT22;6042;41.326;19.826;2024-02-26T01:45:37;11.80;99.90
11965;DHT22;6042;41.326;19.826;2024-02-26T01:48:07;11.90;99.90
11965;DHT22;6042;41.326;19.826;2024-02-26T01:50:38;11.80;99.90
11965;DHT22;6042;41.326;19.826;2024-02-26T01:53:08;11.80;99.90
11965;DHT22;6042;41.326;19.826;2024-02-26T01:55:37;11.90;99.90
11965;DHT22;6042;41.326;19.826;2024-02-26T01:58:07;11.70;99.90
11965;DHT22;6042;41.326;19.826;2024-02-26T02:00:36;11.70;99.90
11965;DHT22;6042;41.326;19.826;2024-02-26T02:03:07;11.70;99.90
11965;DHT22;6042;41.326;19.826;2024-02-26T02:05:36;11.50;99.90
11965;DHT22;6042;41.326;19.826;2024-02-26T02:08:10;11.60;99.90
11965;DHT22;6042;41.326;19.826;2024-02-26T02:10:39;11.40;99.90
11965;DHT22;6042;41.326;19.826;2024-02-26T02:13:09;11.40;99.90
11965;DHT22;6042;41.326;19.826;2024-02-26T02:15:38;11.40;99.90
11965;DHT22;6042;41.326;19.826;2024-02-26T02:18:08;11.30;99.90
11965;DHT22;6042;41.326;19.826;2024-02-26T02:20:38;11.40;99.90
11965;DHT22;6042;41.326;19.826;2024-02-26T02:23:06;11.50;99.90
11965;DHT22;6042;41.326;19.826;2024-02-26T02:25:35;11.30;99.90
11965;DHT22;6042;41.326;19.826;2024-02-26T02:28:04;11.40;99.90
11965;DHT22;6042;41.326;19.826;2024-02-26T02:30:36;11.40;99.90
11965;DHT22;6042;41.326;19.826;2024-02-26T02:33:05;11.40;99.90
11965;DHT22;6042;41.326;19.826;2024-02-26T02:35:34;11.50;99.90
11965;DHT22;6042;41.326;19.826;2024-02-26T02:38:04;11.40;99.90
11965;DHT22;6042;41.326;19.826;2024-02-26T02:40:34;11.30;99.90
11965;DHT22;6042;41.326;19.826;2024-02-26T02:43:03;11.30;99.90
11965;DHT22;6042;41.326;19.826;2024-02-26T02:45:31;11.00;99.90
11965;DHT22;6042;41.326;19.826;2024-02-26T02:48:00;11.10;99.90
11965;DHT22;6042;41.326;19.826;2024-02-26T02:50:29;11.20;99.90
11965;DHT22;6042;41.326;19.826;2024-02-26T02:52:57;10.90;99.90
11965;DHT22;6042;41.326;19.826;2024-02-26T02:55:27;11.00;99.90
11965;DHT22;6042;41.326;19.826;2024-02-26T02:57:56;11.00;99.90
11965;DHT22;6042;41.326;19.826;2024-02-26T03:00:24;10.80;99.90
11965;DHT22;6042;41.326;19.826;2024-02-26T03:02:53;10.90;99.90
11965;DHT22;6042;41.326;19.826;2024-02-26T03:05:24;10.90;99.90
11965;DHT22;6042;41.326;19.826;2024-02-26T03:07:53;10.90;99.90
11965;DHT22;6042;41.326;19.826;2024-02-26T03:10:21;10.90;99.90
11965;DHT22;6042;41.326;19.826;2024-02-26T03:12:51;10.60;99.90
11965;DHT22;6042;41.326;19.826;2024-02-26T03:15:21;10.70;99.90
11965;DHT22;6042;41.326;19.826;2024-02-26T03:17:50;10.70;99.90
11965;DHT22;6042;41.326;19.826;2024-02-26T03:20:19;10.50;99.90
11965;DHT22;6042;41.326;19.826;2024-02-26T03:22:47;10.60;99.90
11965;DHT22;6042;41.326;19.826;2024-02-26T03:25:16;10.60;99.90
11965;DHT22;6042;41.326;19.826;2024-02-26T03:27:44;10.60;99.90
11965;DHT22;6042;41.326;19.826;2024-02-26T03:30:15;10.70;99.90
11965;DHT22;6042;41.326;19.826;2024-02-26T03:32:43;10.70;99.90
11965;DHT22;6042;41.326;19.826;2024-02-26T03:35:12;10.90;99.90
11965;DHT22;6042;41.326;19.826;2024-02-26T03:37:41;10.90;99.90
11965;DHT22;6042;41.326;19.826;2024-02-26T03:40:11;10.80;99.90
11965;DHT22;6042;41.326;19.826;2024-02-26T03:42:41;10.90;99.90
11965;DHT22;6042;41.326;19.826;2024-02-26T03:45:10;11.00;99.90
11965;DHT22;6042;41.326;19.826;2024-02-26T03:47:41;11.00;99.90
11965;DHT22;6042;41.326;19.826;2024-02-26T03:50:10;11.00;99.90
11965;DHT22;6042;41.326;19.826;2024-02-26T03:52:39;10.90;99.90
11965;DHT22;6042;41.326;19.826;2024-02-26T03:55:09;11.00;99.90
11965;DHT22;6042;41.326;19.826;2024-02-26T03:57:38;11.10;99.90
11965;DHT22;6042;41.326;19.826;2024-02-26T04:00:07;11.00;99.90
11965;DHT22;6042;41.326;19.826;2024-02-26T04:02:38;11.10;99.90
11965;DHT22;6042;41.326;19.826;2024-02-26T04:05:11;11.10;99.90
11965;DHT22;6042;41.326;19.826;2024-02-26T04:07:41;11.10;99.90
11965;DHT22;6042;41.326;19.826;2024-02-26T04:10:10;11.20;99.90
11965;DHT22;6042;41.326;19.826;2024-02-26T04:12:39;11.10;99.90
11965;DHT22;6042;41.326;19.826;2024-02-26T04:15:09;11.10;99.90
11965;DHT22;6042;41.326;19.826;2024-02-26T04:17:38;11.30;99.90
11965;DHT22;6042;41.326;19.826;2024-02-26T04:20:12;11.10;99.90
11965;DHT22;6042;41.326;19.826;2024-02-26T04:22:43;11.20;99.90
11965;DHT22;6042;41.326;19.826;2024-02-26T04:25:12;11.10;99.90
11965;DHT22;6042;41.326;19.826;2024-02-26T04:27:41;11.10;99.90
11965;DHT22;6042;41.326;19.826;2024-02-26T04:30:10;11.20;99.90
11965;DHT22;6042;41.326;19.826;2024-02-26T04:32:41;11.00;99.90
11965;DHT22;6042;41.326;19.826;2024-02-26T04:35:10;11.00;99.90
11965;DHT22;6042;41.326;19.826;2024-02-26T04:37:39;11.10;99.90
11965;DHT22;6042;41.326;19.826;2024-02-26T04:40:09;11.00;99.90
11965;DHT22;6042;41.326;19.826;2024-02-26T04:42:38;11.00;99.90
11965;DHT22;6042;41.326;19.826;2024-02-26T04:45:07;10.90;99.90
11965;DHT22;6042;41.326;19.826;2024-02-26T04:47:36;10.90;99.90
11965;DHT22;6042;41.326;19.826;2024-02-26T04:50:06;11.00;99.90
11965;DHT22;6042;41.326;19.826;2024-02-26T04:52:38;10.80;99.90
11965;DHT22;6042;41.326;19.826;2024-02-26T04:55:08;10.90;99.90
11965;DHT22;6042;41.326;19.826;2024-02-26T04:57:37;10.90;99.90
11965;DHT22;6042;41.326;19.826;2024-02-26T05:00:09;10.70;99.90
11965;DHT22;6042;41.326;19.826;2024-02-26T05:02:38;10.90;99.90
11965;DHT22;6042;41.326;19.826;2024-02-26T05:05:08;10.90;99.90
11965;DHT22;6042;41.326;19.826;2024-02-26T05:07:42;10.90;99.90
11965;DHT22;6042;41.326;19.826;2024-02-26T05:10:12;10.90;99.90
11965;DHT22;6042;41.326;19.826;2024-02-26T05:12:43;10.80;99.90
11965;DHT22;6042;41.326;19.826;2024-02-26T05:15:11;10.90;99.90
11965;DHT22;6042;41.326;19.826;2024-02-26T05:17:45;10.90;99.90
11965;DHT22;6042;41.326;19.826;2024-02-26T05:20:15;10.70;99.90
11965;DHT22;6042;41.326;19.826;2024-02-26T05:22:46;10.80;99.90
11965;DHT22;6042;41.326;19.826;2024-02-26T05:25:17;10.70;99.90
11965;DHT22;6042;41.326;19.826;2024-02-26T05:27:45;10.60;99.90
11965;DHT22;6042;41.326;19.826;2024-02-26T05:30:16;10.60;99.90
11965;DHT22;6042;41.326;19.826;2024-02-26T05:32:44;10.60;99.90
11965;DHT22;6042;41.326;19.826;2024-02-26T05:35:13;10.60;99.90
11965;DHT22;6042;41.326;19.826;2024-02-26T05:37:42;10.60;99.90
11965;DHT22;6042;41.326;19.826;2024-02-26T05:40:11;10.50;99.90
11965;DHT22;6042;41.326;19.826;2024-02-26T05:42:46;10.60;99.90
11965;DHT22;6042;41.326;19.826;2024-02-26T05:45:16;10.70;99.90
11965;DHT22;6042;41.326;19.826;2024-02-26T05:47:45;10.60;99.90
11965;DHT22;6042;41.326;19.826;2024-02-26T05:50:14;10.70;99.90
11965;DHT22;6042;41.326;19.826;2024-02-26T05:52:42;10.50;99.90
11965;DHT22;6042;41.326;19.826;2024-02-26T05:55:17;10.50;99.90
11965;DHT22;6042;41.326;19.826;2024-02-26T05:57:46;10.60;99.90
11965;DHT22;6042;41.326;19.826;2024-02-26T06:00:19;10.40;99.90
11965;DHT22;6042;41.326;19.826;2024-02-26T06:02:48;10.40;99.90
11965;DHT22;6042;41.326;19.826;2024-02-26T06:05:16;10.50;99.90
11965;DHT22;6042;41.326;19.826;2024-02-26T06:07:45;10.40;99.90
11965;DHT22;6042;41.326;19.826;2024-02-26T06:10:13;10.50;99.90
11965;DHT22;6042;41.326;19.826;2024-02-26T06:12:46;10.60;99.90
11965;DHT22;6042;41.326;19.826;2024-02-26T06:15:15;10.70;99.90
11965;DHT22;6042;41.326;19.826;2024-02-26T06:17:44;10.90;99.90
11965;DHT22;6042;41.326;19.826;2024-02-26T06:20:15;11.10;99.90
11965;DHT22;6042;41.326;19.826;2024-02-26T06:22:47;11.20;99.90
11965;DHT22;6042;41.326;19.826;2024-02-26T06:25:15;11.30;99.90
11965;DHT22;6042;41.326;19.826;2024-02-26T06:27:45;11.40;99.90
11965;DHT22;6042;41.326;19.826;2024-02-26T06:30:15;11.40;99.90
11965;DHT22;6042;41.326;19.826;2024-02-26T06:32:43;11.40;99.90
11965;DHT22;6042;41.326;19.826;2024-02-26T06:35:12;11.40;99.90
11965;DHT22;6042;41.326;19.826;2024-02-26T06:37:41;11.30;99.90
11965;DHT22;6042;41.326;19.826;2024-02-26T06:40:12;11.30;99.90
11965;DHT22;6042;41.326;19.826;2024-02-26T06:42:41;11.50;99.90
11965;DHT22;6042;41.326;19.826;2024-02-26T06:45:17;11.50;99.90
11965;DHT22;6042;41.326;19.826;2024-02-26T06:47:46;11.80;99.90
11965;DHT22;6042;41.326;19.826;2024-02-26T06:50:15;11.70;99.90
11965;DHT22;6042;41.326;19.826;2024-02-26T06:52:44;11.70;99.90
11965;DHT22;6042;41.326;19.826;2024-02-26T06:55:13;11.90;99.90
11965;DHT22;6042;41.326;19.826;2024-02-26T06:57:42;11.80;99.90
11965;DHT22;6042;41.326;19.826;2024-02-26T07:00:11;12.00;99.90
11965;DHT22;6042;41.326;19.826;2024-02-26T07:02:46;12.00;99.90
11965;DHT22;6042;41.326;19.826;2024-02-26T07:05:15;12.10;99.90
11965;DHT22;6042;41.326;19.826;2024-02-26T07:07:46;12.20;99.90
11965;DHT22;6042;41.326;19.826;2024-02-26T07:10:15;12.30;99.90
11965;DHT22;6042;41.326;19.826;2024-02-26T07:12:43;12.50;99.90
11965;DHT22;6042;41.326;19.826;2024-02-26T07:15:12;12.50;99.90
11965;DHT22;6042;41.326;19.826;2024-02-26T07:17:43;12.60;99.90
11965;DHT22;6042;41.326;19.826;2024-02-26T07:20:17;12.80;99.90
11965;DHT22;6042;41.326;19.826;2024-02-26T07:22:46;12.70;99.90
11965;DHT22;6042;41.326;19.826;2024-02-26T07:25:15;12.80;99.90
11965;DHT22;6042;41.326;19.826;2024-02-26T07:27:44;12.90;99.90
11965;DHT22;6042;41.326;19.826;2024-02-26T07:30:16;12.90;99.90
11965;DHT22;6042;41.326;19.826;2024-02-26T07:32:45;13.10;99.90
11965;DHT22;6042;41.326;19.826;2024-02-26T07:35:19;13.00;99.90
11965;DHT22;6042;41.326;19.826;2024-02-26T07:37:48;13.10;99.90
11965;DHT22;6042;41.326;19.826;2024-02-26T07:40:19;13.30;99.90
11965;DHT22;6042;41.326;19.826;2024-02-26T07:42:48;13.30;99.90
11965;DHT22;6042;41.326;19.826;2024-02-26T07:45:17;13.50;99.90
11965;DHT22;6042;41.326;19.826;2024-02-26T07:47:47;13.70;99.90
11965;DHT22;6042;41.326;19.826;2024-02-26T07:50:15;13.70;99.90
11965;DHT22;6042;41.326;19.826;2024-02-26T07:52:47;13.80;99.90
11965;DHT22;6042;41.326;19.826;2024-02-26T07:55:18;13.70;99.90
11965;DHT22;6042;41.326;19.826;2024-02-26T07:57:56;13.90;99.90
11965;DHT22;6042;41.326;19.826;2024-02-26T08:00:24;14.10;99.90
11965;DHT22;6042;41.326;19.826;2024-02-26T08:02:53;14.20;99.90
11965;DHT22;6042;41.326;19.826;2024-02-26T08:05:21;14.30;99.90
11965;DHT22;6042;41.326;19.826;2024-02-26T08:07:51;14.30;99.90
11965;DHT22;6042;41.326;19.826;2024-02-26T08:10:22;14.50;99.90
11965;DHT22;6042;41.326;19.826;2024-02-26T08:12:50;14.70;99.90
11965;DHT22;6042;41.326;19.826;2024-02-26T08:15:19;14.60;99.90
11965;DHT22;6042;41.326;19.826;2024-02-26T08:17:50;14.80;99.90
11965;DHT22;6042;41.326;19.826;2024-02-26T08:20:19;14.90;99.90
11965;DHT22;6042;41.326;19.826;2024-02-26T08:22:47;14.90;99.90
11965;DHT22;6042;41.326;19.826;2024-02-26T08:25:18;15.30;99.90
11965;DHT22;6042;41.326;19.826;2024-02-26T08:27:46;15.30;99.90
11965;DHT22;6042;41.326;19.826;2024-02-26T08:30:17;15.50;99.90
11965;DHT22;6042;41.326;19.826;2024-02-26T08:32:47;15.70;99.90
11965;DHT22;6042;41.326;19.826;2024-02-26T08:35:19;15.70;99.90
11965;DHT22;6042;41.326;19.826;2024-02-26T08:37:48;15.80;99.90
11965;DHT22;6042;41.326;19.826;2024-02-26T08:40:18;15.90;99.90
11965;DHT22;6042;41.326;19.826;2024-02-26T08:42:46;15.90;99.90
11965;DHT22;6042;41.326;19.826;2024-02-26T08:45:16;16.10;99.90
11965;DHT22;6042;41.326;19.826;2024-02-26T08:47:45;16.10;99.90
11965;DHT22;6042;41.326;19.826;2024-02-26T08:50:14;16.10;99.90
11965;DHT22;6042;41.326;19.826;2024-02-26T08:52:44;16.30;99.90
11965;DHT22;6042;41.326;19.826;2024-02-26T08:55:19;16.30;99.90
11965;DHT22;6042;41.326;19.826;2024-02-26T08:57:47;16.50;99.90
11965;DHT22;6042;41.326;19.826;2024-02-26T09:00:17;16.50;99.90
11965;DHT22;6042;41.326;19.826;2024-02-26T09:02:49;16.50;99.90
11965;DHT22;6042;41.326;19.826;2024-02-26T09:05:18;16.60;99.90
11965;DHT22;6042;41.326;19.826;2024-02-26T09:07:47;16.90;99.90
11965;DHT22;6042;41.326;19.826;2024-02-26T09:10:15;17.00;99.90
11965;DHT22;6042;41.326;19.826;2024-02-26T09:12:45;17.20;99.90
11965;DHT22;6042;41.326;19.826;2024-02-26T09:15:14;17.20;99.90
11965;DHT22;6042;41.326;19.826;2024-02-26T09:17:43;17.30;99.90
11965;DHT22;6042;41.326;19.826;2024-02-26T09:20:13;17.50;99.90
11965;DHT22;6042;41.326;19.826;2024-02-26T09:22:47;17.50;99.90
11965;DHT22;6042;41.326;19.826;2024-02-26T09:25:17;17.60;99.90
11965;DHT22;6042;41.326;19.826;2024-02-26T09:27:47;17.70;99.90
11965;DHT22;6042;41.326;19.826;2024-02-26T09:30:18;17.70;99.90
11965;DHT22;6042;41.326;19.826;2024-02-26T09:32:47;17.80;99.80
11965;DHT22;6042;41.326;19.826;2024-02-26T09:35:17;17.60;99.90
11965;DHT22;6042;41.326;19.826;2024-02-26T09:37:46;17.70;99.90
11965;DHT22;6042;41.326;19.826;2024-02-26T09:40:16;17.60;99.90
11965;DHT22;6042;41.326;19.826;2024-02-26T09:42:46;17.60;99.90
11965;DHT22;6042;41.326;19.826;2024-02-26T09:45:18;17.70;99.90
11965;DHT22;6042;41.326;19.826;2024-02-26T09:47:48;17.70;99.90
11965;DHT22;6042;41.326;19.826;2024-02-26T09:50:18;17.80;99.90
11965;DHT22;6042;41.326;19.826;2024-02-26T09:52:54;17.90;99.90
11965;DHT22;6042;41.326;19.826;2024-02-26T09:55:26;17.80;99.90
11965;DHT22;6042;41.326;19.826;2024-02-26T09:57:56;17.90;99.90
11965;DHT22;6042;41.326;19.826;2024-02-26T10:00:28;17.90;99.90
11965;DHT22;6042;41.326;19.826;2024-02-26T10:03:04;18.00;99.90
11965;DHT22;6042;41.326;19.826;2024-02-26T10:05:33;18.00;99.90
11965;DHT22;6042;41.326;19.826;2024-02-26T10:08:04;18.00;99.90
11965;DHT22;6042;41.326;19.826;2024-02-26T10:10:33;18.20;99.90
11965;DHT22;6042;41.326;19.826;2024-02-26T10:13:06;18.30;98.70
11965;DHT22;6042;41.326;19.826;2024-02-26T10:15:37;18.50;98.10
11965;DHT22;6042;41.326;19.826;2024-02-26T10:18:06;18.70;97.20
11965;DHT22;6042;41.326;19.826;2024-02-26T10:20:35;18.80;97.00
11965;DHT22;6042;41.326;19.826;2024-02-26T10:23:04;19.00;96.90
11965;DHT22;6042;41.326;19.826;2024-02-26T10:25:34;19.10;96.80
11965;DHT22;6042;41.326;19.826;2024-02-26T10:28:04;19.10;96.80
11965;DHT22;6042;41.326;19.826;2024-02-26T10:30:37;19.20;95.60
11965;DHT22;6042;41.326;19.826;2024-02-26T10:33:07;19.10;95.40
11965;DHT22;6042;41.326;19.826;2024-02-26T10:35:36;19.20;95.50
11965;DHT22;6042;41.326;19.826;2024-02-26T10:38:08;19.30;96.20
11965;DHT22;6042;41.326;19.826;2024-02-26T10:40:37;19.40;95.50
11965;DHT22;6042;41.326;19.826;2024-02-26T10:43:07;19.40;95.70
11965;DHT22;6042;41.326;19.826;2024-02-26T10:45:35;19.40;95.40
11965;DHT22;6042;41.326;19.826;2024-02-26T10:48:10;19.40;95.40
11965;DHT22;6042;41.326;19.826;2024-02-26T10:50:42;19.50;94.60
11965;DHT22;6042;41.326;19.826;2024-02-26T10:53:15;19.40;94.70
11965;DHT22;6042;41.326;19.826;2024-02-26T10:55:49;19.50;94.60
11965;DHT22;6042;41.326;19.826;2024-02-26T10:58:19;19.70;94.50
11965;DHT22;6042;41.326;19.826;2024-02-26T11:00:50;19.80;94.90
11965;DHT22;6042;41.326;19.826;2024-02-26T11:03:19;19.80;94.20
11965;DHT22;6042;41.326;19.826;2024-02-26T11:05:50;19.90;94.20
11965;DHT22;6042;41.326;19.826;2024-02-26T11:08:19;20.10;94.10
11965;DHT22;6042;41.326;19.826;2024-02-26T11:10:52;20.10;93.80
11965;DHT22;6042;41.326;19.826;2024-02-26T11:13:27;20.20;93.60
11965;DHT22;6042;41.326;19.826;2024-02-26T11:15:59;20.30;93.90
11965;DHT22;6042;41.326;19.826;2024-02-26T11:18:29;20.20;93.20
11965;DHT22;6042;41.326;19.826;2024-02-26T11:21:04;19.90;93.30
11965;DHT22;6042;41.326;19.826;2024-02-26T11:23:33;19.90;93.30
11965;DHT22;6042;41.326;19.826;2024-02-26T11:26:05;20.10;92.90
11965;DHT22;6042;41.326;19.826;2024-02-26T11:28:37;20.20;92.60
11965;DHT22;6042;41.326;19.826;2024-02-26T11:31:07;20.20;92.20
11965;DHT22;6042;41.326;19.826;2024-02-26T11:33:36;20.10;93.00
11965;DHT22;6042;41.326;19.826;2024-02-26T11:36:08;20.10;92.30
11965;DHT22;6042;41.326;19.826;2024-02-26T11:38:37;20.10;92.20
11965;DHT22;6042;41.326;19.826;2024-02-26T11:41:07;20.20;92.50
11965;DHT22;6042;41.326;19.826;2024-02-26T11:43:53;20.10;92.80
11965;DHT22;6042;41.326;19.826;2024-02-26T11:46:26;20.10;92.70
11965;DHT22;6042;41.326;19.826;2024-02-26T11:49:00;19.90;93.00
11965;DHT22;6042;41.326;19.826;2024-02-26T11:51:38;20.20;93.60
11965;DHT22;6042;41.326;19.826;2024-02-26T11:54:06;20.10;93.00
11965;DHT22;6042;41.326;19.826;2024-02-26T11:56:35;20.00;92.60
11965;DHT22;6042;41.326;19.826;2024-02-26T11:59:11;20.10;93.20
11965;DHT22;6042;41.326;19.826;2024-02-26T12:01:49;20.30;91.90
11965;DHT22;6042;41.326;19.826;2024-02-26T12:04:24;20.30;92.40
11965;DHT22;6042;41.326;19.826;2024-02-26T12:06:56;20.20;92.00
11965;DHT22;6042;41.326;19.826;2024-02-26T12:09:31;20.20;92.70
11965;DHT22;6042;41.326;19.826;2024-02-26T12:12:02;20.20;92.60
11965;DHT22;6042;41.326;19.826;2024-02-26T12:14:37;20.20;93.30
11965;DHT22;6042;41.326;19.826;2024-02-26T12:17:15;20.20;91.90
11965;DHT22;6042;41.326;19.826;2024-02-26T12:19:48;20.20;92.30
11965;DHT22;6042;41.326;19.826;2024-02-26T12:22:17;20.40;92.20
11965;DHT22;6042;41.326;19.826;2024-02-26T12:24:57;20.10;92.40
11965;DHT22;6042;41.326;19.826;2024-02-26T12:27:26;20.30;92.30
11965;DHT22;6042;41.326;19.826;2024-02-26T12:29:57;20.30;93.00
11965;DHT22;6042;41.326;19.826;2024-02-26T12:32:25;20.40;92.40
11965;DHT22;6042;41.326;19.826;2024-02-26T12:34:54;20.30;92.90
11965;DHT22;6042;41.326;19.826;2024-02-26T12:37:23;20.40;92.40
11965;DHT22;6042;41.326;19.826;2024-02-26T12:39:51;20.70;91.60
11965;DHT22;6042;41.326;19.826;2024-02-26T12:42:20;21.00;91.00
11965;DHT22;6042;41.326;19.826;2024-02-26T12:44:50;21.10;91.50
11965;DHT22;6042;41.326;19.826;2024-02-26T12:47:20;21.10;91.60
11965;DHT22;6042;41.326;19.826;2024-02-26T12:49:48;20.90;90.90
11965;DHT22;6042;41.326;19.826;2024-02-26T12:52:18;20.90;92.00
11965;DHT22;6042;41.326;19.826;2024-02-26T12:54:47;20.80;91.50
11965;DHT22;6042;41.326;19.826;2024-02-26T12:57:17;20.70;91.50
11965;DHT22;6042;41.326;19.826;2024-02-26T12:59:48;20.60;91.30
11965;DHT22;6042;41.326;19.826;2024-02-26T13:02:17;20.40;91.40
11965;DHT22;6042;41.326;19.826;2024-02-26T13:04:47;20.10;90.70
11965;DHT22;6042;41.326;19.826;2024-02-26T13:07:16;20.10;91.20
11965;DHT22;6042;41.326;19.826;2024-02-26T13:09:45;20.10;91.40
11965;DHT22;6042;41.326;19.826;2024-02-26T13:12:17;20.20;91.50
11965;DHT22;6042;41.326;19.826;2024-02-26T13:14:45;20.30;92.20
11965;DHT22;6042;41.326;19.826;2024-02-26T13:17:14;20.10;90.50
11965;DHT22;6042;41.326;19.826;2024-02-26T13:19:52;20.20;90.20
11965;DHT22;6042;41.326;19.826;2024-02-26T13:22:21;20.10;90.10
11965;DHT22;6042;41.326;19.826;2024-02-26T13:24:55;20.10;90.00
11965;DHT22;6042;41.326;19.826;2024-02-26T13:27:24;20.20;89.00
11965;DHT22;6042;41.326;19.826;2024-02-26T13:30:04;20.20;88.80
11965;DHT22;6042;41.326;19.826;2024-02-26T13:32:40;20.30;87.60
11965;DHT22;6042;41.326;19.826;2024-02-26T13:35:11;20.20;87.60
11965;DHT22;6042;41.326;19.826;2024-02-26T13:37:40;20.00;87.70
11965;DHT22;6042;41.326;19.826;2024-02-26T13:40:10;20.00;87.50
11965;DHT22;6042;41.326;19.826;2024-02-26T13:42:40;19.90;88.60
11965;DHT22;6042;41.326;19.826;2024-02-26T13:45:09;19.90;88.90
11965;DHT22;6042;41.326;19.826;2024-02-26T13:47:38;19.80;90.00
11965;DHT22;6042;41.326;19.826;2024-02-26T13:50:09;19.90;89.80
11965;DHT22;6042;41.326;19.826;2024-02-26T13:52:38;19.90;89.20
11965;DHT22;6042;41.326;19.826;2024-02-26T13:55:07;19.90;89.30
11965;DHT22;6042;41.326;19.826;2024-02-26T13:57:35;20.00;89.20
11965;DHT22;6042;41.326;19.826;2024-02-26T14:00:05;20.30;89.20
11965;DHT22;6042;41.326;19.826;2024-02-26T14:02:37;20.50;90.00
11965;DHT22;6042;41.326;19.826;2024-02-26T14:05:17;20.30;88.20
11965;DHT22;6042;41.326;19.826;2024-02-26T14:07:48;20.10;88.90
11965;DHT22;6042;41.326;19.826;2024-02-26T14:10:27;19.90;90.20
11965;DHT22;6042;41.326;19.826;2024-02-26T14:12:55;19.80;90.20
11965;DHT22;6042;41.326;19.826;2024-02-26T14:15:24;19.60;90.40
11965;DHT22;6042;41.326;19.826;2024-02-26T14:17:53;19.40;90.80
11965;DHT22;6042;41.326;19.826;2024-02-26T14:20:27;19.30;91.20
11965;DHT22;6042;41.326;19.826;2024-02-26T14:22:56;19.20;91.00
11965;DHT22;6042;41.326;19.826;2024-02-26T14:25:25;19.20;90.90
11965;DHT22;6042;41.326;19.826;2024-02-26T14:27:58;19.10;91.50
11965;DHT22;6042;41.326;19.826;2024-02-26T14:30:27;19.00;91.30
11965;DHT22;6042;41.326;19.826;2024-02-26T14:32:58;19.00;91.50
11965;DHT22;6042;41.326;19.826;2024-02-26T14:35:28;19.00;91.60
11965;DHT22;6042;41.326;19.826;2024-02-26T14:37:57;19.00;91.60
11965;DHT22;6042;41.326;19.826;2024-02-26T14:40:34;19.00;91.60
11965;DHT22;6042;41.326;19.826;2024-02-26T14:43:02;19.00;91.00
11965;DHT22;6042;41.326;19.826;2024-02-26T14:45:32;19.10;91.10
11965;DHT22;6042;41.326;19.826;2024-02-26T14:48:00;19.20;90.80
11965;DHT22;6042;41.326;19.826;2024-02-26T14:50:35;19.10;90.10
11965;DHT22;6042;41.326;19.826;2024-02-26T14:53:04;19.10;90.00
11965;DHT22;6042;41.326;19.826;2024-02-26T14:55:33;19.20;90.10
11965;DHT22;6042;41.326;19.826;2024-02-26T14:58:10;19.10;90.10
11965;DHT22;6042;41.326;19.826;2024-02-26T15:00:39;19.10;90.10
11965;DHT22;6042;41.326;19.826;2024-02-26T15:03:10;19.10;89.10
11965;DHT22;6042;41.326;19.826;2024-02-26T15:05:40;19.10;88.80
11965;DHT22;6042;41.326;19.826;2024-02-26T15:08:08;19.20;88.00
11965;DHT22;6042;41.326;19.826;2024-02-26T15:10:43;19.20;88.20
11965;DHT22;6042;41.326;19.826;2024-02-26T15:13:16;19.20;88.60
11965;DHT22;6042;41.326;19.826;2024-02-26T15:15:45;19.10;88.00
11965;DHT22;6042;41.326;19.826;2024-02-26T15:18:14;19.10;88.80
11965;DHT22;6042;41.326;19.826;2024-02-26T15:20:48;19.00;90.10
11965;DHT22;6042;41.326;19.826;2024-02-26T15:23:19;19.00;89.60
11965;DHT22;6042;41.326;19.826;2024-02-26T15:25:47;18.90;90.10
11965;DHT22;6042;41.326;19.826;2024-02-26T15:28:16;18.80;90.50
11965;DHT22;6042;41.326;19.826;2024-02-26T15:30:47;18.80;90.30
11965;DHT22;6042;41.326;19.826;2024-02-26T15:33:16;18.70;90.50
11965;DHT22;6042;41.326;19.826;2024-02-26T15:35:47;18.70;92.40
11965;DHT22;6042;41.326;19.826;2024-02-26T15:38:17;18.70;90.30
11965;DHT22;6042;41.326;19.826;2024-02-26T15:40:45;18.70;90.60
11965;DHT22;6042;41.326;19.826;2024-02-26T15:43:14;18.70;90.00
11965;DHT22;6042;41.326;19.826;2024-02-26T15:45:43;18.70;90.50
11965;DHT22;6042;41.326;19.826;2024-02-26T15:48:14;18.60;91.00